Time,TemperatureC,DewpointC,PressurehPa,WindDirection,WindDirectionDegrees,WindSpeedKMH,WindSpeedGustKMH,Humidity,HourlyPrecipMM,Conditions,Clouds,dailyrainMM,SolarRadiationWatts/m^2,UVIndex,SoftwareType,DateUTC
2021-04-21 00:04:55,11.4,9.5,1003.6,ESE,109,0,0,88,0.0,,,0.0,0,0,n/a,2021-04-20T12:04:55Z
2021-04-21 00:09:12,11.3,9.4,1003.6,ESE,109,0,0,88,0.0,,,0.0,0,0,n/a,2021-04-20T12:09:12Z
2021-04-21 00:14:50,11.2,9.5,1003.6,ESE,109,0,0,89,0.0,,,0.0,0,0,n/a,2021-04-20T12:14:50Z
2021-04-21 00:19:58,11.2,9.5,1003.6,ESE,109,0,0,89,0.0,,,0.0,0,0,n/a,2021-04-20T12:19:58Z
2021-04-21 00:24:54,11.1,9.4,1003.5,ESE,109,0,0,89.1,0.0,,,0.0,0,0,n/a,2021-04-20T12:24:54Z
2021-04-21 00:29:58,11,9.4,1003.5,ESE,109,0,0,90,0.0,,,0.0,0,0,n/a,2021-04-20T12:29:58Z
2021-04-21 00:34:56,10.9,9.4,1003.5,ESE,109,0,0,90,0.0,,,0.0,0,0,n/a,2021-04-20T12:34:56Z
2021-04-21 00:39:56,10.8,9.3,1003.4,ESE,109,0,0,90,0.0,,,0.0,0,0,n/a,2021-04-20T12:39:56Z
2021-04-21 00:44:57,10.7,9.2,1003.3,ESE,109,0,0,90,0.0,,,0.0,0,0,n/a,2021-04-20T12:44:57Z
2021-04-21 00:49:57,10.7,9.1,1003.2,ESE,109,0,0,90,0.0,,,0.0,0,0,n/a,2021-04-20T12:49:57Z
2021-04-21 00:54:57,10.6,9.1,1003.0,ESE,109,0,0,90,0.0,,,0.0,0,0,n/a,2021-04-20T12:54:57Z
2021-04-21 00:59:57,10.6,9.2,1003.0,ESE,109,0,0,90.8,0.0,,,0.0,0,0,n/a,2021-04-20T12:59:57Z
2021-04-21 01:04:54,10.6,9.2,1003.1,ESE,109,0,0,91,0.0,,,0.0,0,0,n/a,2021-04-20T13:04:54Z
2021-04-21 01:09:37,10.6,9.2,1003.0,ESE,109,0,0,91,0.0,,,0.0,0,0,n/a,2021-04-20T13:09:37Z
2021-04-21 01:14:55,10.6,9.2,1003.1,ESE,109,0,0,91,0.0,,,0.0,0,0,n/a,2021-04-20T13:14:55Z
2021-04-21 01:19:49,10.5,9.1,1003.2,ESE,109,0,0,91,0.0,,,0.0,0,0,n/a,2021-04-20T13:19:49Z
2021-04-21 01:24:54,10.5,9.1,1003.2,ESE,109,0,0,91,0.0,,,0.0,0,0,n/a,2021-04-20T13:24:54Z
2021-04-21 01:29:58,10.4,9,1003.2,ESE,109,0,0,91,0.0,,,0.0,0,0,n/a,2021-04-20T13:29:58Z
2021-04-21 01:34:58,10.3,8.9,1003.2,ESE,109,0,0,91,0.0,,,0.0,0,0,n/a,2021-04-20T13:34:58Z
2021-04-21 01:39:59,10.3,8.9,1003.2,ESE,109,0.3,1.9,91,0.0,,,0.0,0,0,n/a,2021-04-20T13:39:59Z
2021-04-21 01:44:59,10.3,8.9,1003.2,ESE,109,0,1.9,91,0.0,,,0.0,0,0,n/a,2021-04-20T13:44:59Z
2021-04-21 01:49:59,10.3,8.9,1003.2,ESE,109,0,0,91,0.0,,,0.0,0,0,n/a,2021-04-20T13:49:59Z
2021-04-21 01:54:45,10.2,8.9,1003.1,ESE,109,0,0,91,0.0,,,0.0,0,0,n/a,2021-04-20T13:54:45Z
2021-04-21 01:59:44,10.2,8.8,1003.1,ESE,109,0,0,91,0.0,,,0.0,0,0,n/a,2021-04-20T13:59:44Z
2021-04-21 02:04:40,10.2,8.9,1003.1,ESE,109,0,0,92,0.0,,,0.0,0,0,n/a,2021-04-20T14:04:40Z
2021-04-21 02:09:58,10.2,8.9,1003.1,ESE,109,0,0,92,0.0,,,0.0,0,0,n/a,2021-04-20T14:09:58Z
2021-04-21 02:14:43,10.1,8.9,1003.0,ESE,109,0,0,92,0.0,,,0.0,0,0,n/a,2021-04-20T14:14:43Z
2021-04-21 02:19:43,10.1,8.9,1003.0,ESE,109,0,0,92,0.0,,,0.0,0,0,n/a,2021-04-20T14:19:43Z
2021-04-21 02:24:59,10.2,8.9,1003.0,SSE,147,0.9,3.7,92,0.0,,,0.0,0,0,n/a,2021-04-20T14:24:59Z
2021-04-21 02:29:59,10.3,9,1003.0,SSW,201,1.8,3.7,92,0.0,,,0.0,0,0,n/a,2021-04-20T14:29:59Z
2021-04-21 02:34:57,10.3,9.1,1002.9,SSW,212,1.1,3.7,92,0.0,,,0.0,0,0,n/a,2021-04-20T14:34:57Z
2021-04-21 02:39:50,10.3,9.1,1002.9,SW,219,0.7,3.7,92,0.0,,,0.0,0,0,n/a,2021-04-20T14:39:50Z
2021-04-21 02:44:54,10.3,9.1,1002.9,SW,219,0.3,1.9,92,0.0,,,0.0,0,0,n/a,2021-04-20T14:44:54Z
2021-04-21 02:49:59,10.4,9.1,1002.7,SW,219,0.3,1.9,92,0.0,,,0.0,0,0,n/a,2021-04-20T14:49:59Z
2021-04-21 02:54:59,10.4,9.2,1002.7,SW,219,1.5,3.7,92,0.0,,,0.0,0,0,n/a,2021-04-20T14:54:59Z
2021-04-21 02:59:58,10.4,9.2,1002.7,SW,219,0.2,1.9,92,0.0,,,0.0,0,0,n/a,2021-04-20T14:59:58Z
2021-04-21 03:04:11,10.4,9.2,1002.6,SW,219,0,1.9,92,0.0,,,0.0,0,0,n/a,2021-04-20T15:04:11Z
2021-04-21 03:09:44,10.4,9.1,1002.6,SW,219,0.2,1.9,92,0.0,,,0.0,0,0,n/a,2021-04-20T15:09:44Z
2021-04-21 03:14:56,10.4,9.1,1002.6,SW,219,1.5,5.6,92,0.0,,,0.0,0,0,n/a,2021-04-20T15:14:56Z
2021-04-21 03:19:55,10.4,9.2,1002.6,WSW,243,1.8,6.4,92,0.0,,,0.0,0,0,n/a,2021-04-20T15:19:55Z
2021-04-21 03:24:57,10.5,9.3,1002.7,West,264,2.1,7.4,92,0.0,,,0.0,0,0,n/a,2021-04-20T15:24:57Z
2021-04-21 03:29:56,10.7,9.5,1002.6,West,260,2.3,5.6,92,0.0,,,0.0,0,0,n/a,2021-04-20T15:29:56Z
2021-04-21 03:33:59,10.8,9.6,1002.6,WNW,287,1.6,5.6,92,0.0,,,0.0,0,0,n/a,2021-04-20T15:33:59Z
2021-04-21 03:39:57,10.9,9.7,1002.6,West,272,1.7,5.6,92,0.0,,,0.0,0,0,n/a,2021-04-20T15:39:57Z
2021-04-21 03:44:57,11,9.7,1002.5,West,274,1.2,3.7,91.8,0.0,,,0.0,0,0,n/a,2021-04-20T15:44:57Z
2021-04-21 03:49:57,11.1,9.7,1002.5,West,279,2,6.4,91,0.0,,,0.0,0,0,n/a,2021-04-20T15:49:57Z
2021-04-21 03:54:56,11.2,9.8,1002.5,WNW,291,1.4,3.7,91,0.0,,,0.0,0,0,n/a,2021-04-20T15:54:56Z
2021-04-21 03:59:56,11.3,9.8,1002.5,West,276,0.9,3.7,90.5,0.0,,,0.0,0,0,n/a,2021-04-20T15:59:56Z
2021-04-21 04:04:27,11.3,9.8,1002.4,North,11,0.5,3.7,90,0.0,,,0.0,0,0,n/a,2021-04-20T16:04:27Z
2021-04-21 04:59:54,11.3,9.4,1002.6,West,260,1.8,5.6,88,0.0,,,0.0,0,0,n/a,2021-04-20T16:59:54Z
2021-04-21 06:34:57,11.2,9.8,1002.9,ESE,111,0.8,1.9,91,0.0,,,0.0,0,0,n/a,2021-04-20T18:34:57Z
2021-04-21 06:39:58,11.2,9.9,1002.9,ESE,119,0.9,3.7,91,0.0,,,0.0,0,0,n/a,2021-04-20T18:39:58Z
2021-04-21 06:44:58,11.2,9.8,1002.9,WSW,258,0.6,3.7,91,0.0,,,0.0,0,0,n/a,2021-04-20T18:44:58Z
2021-04-21 06:49:58,11.2,9.8,1002.9,WNW,296,1.9,5.6,91,0.0,,,0.0,0,0,n/a,2021-04-20T18:49:58Z
2021-04-21 06:54:58,11.2,9.8,1002.9,WNW,303,2.2,6.4,91,0.0,,,0.0,0,0,n/a,2021-04-20T18:54:58Z
2021-04-21 06:59:58,11.2,9.8,1002.9,NW,324,0.5,3.7,91,0.0,,,0.0,0,0,n/a,2021-04-20T18:59:58Z
2021-04-21 07:04:55,11.1,9.7,1002.9,NNE,25,0.2,1.9,91,0.0,,,0.0,0,0,n/a,2021-04-20T19:04:55Z
2021-04-21 07:09:44,11.1,9.7,1003.0,East,79,0.1,1.9,91,0.0,,,0.0,0,0,n/a,2021-04-20T19:09:44Z
2021-04-21 07:14:50,11,9.6,1003.0,East,90,0.3,3.7,91,0.0,,,0.0,0,0,n/a,2021-04-20T19:14:50Z
2021-04-21 07:19:56,11,9.6,1003.0,West,259,0.4,3.7,91,0.0,,,0.0,0,0,n/a,2021-04-20T19:19:56Z
2021-04-21 07:24:56,10.9,9.7,1003.0,West,279,0.9,5.6,91.7,0.0,,,0.0,5,0,n/a,2021-04-20T19:24:56Z
2021-04-21 07:29:59,11,9.7,1003.1,WSW,254,0.8,3.7,92,0.0,,,0.0,5,0,n/a,2021-04-20T19:29:59Z
2021-04-21 07:34:55,11,9.7,1003.1,West,259,1.2,5.6,92,0.0,,,0.0,9,0,n/a,2021-04-20T19:34:55Z
2021-04-21 07:39:56,11,9.8,1003.2,West,272,1.2,5.6,92,0.0,,,0.0,11,0,n/a,2021-04-20T19:39:56Z
2021-04-21 07:44:56,11.1,9.8,1003.2,West,269,2,5.6,92,0.0,,,0.0,16,0,n/a,2021-04-20T19:44:56Z
2021-04-21 07:49:54,11,9.7,1003.3,WSW,256,1.2,3.7,92,0.0,,,0.0,23,0,n/a,2021-04-20T19:49:54Z
2021-04-21 07:54:54,10.9,9.7,1003.3,WSW,257,0.8,3.7,92,0.0,,,0.0,25,0,n/a,2021-04-20T19:54:54Z
2021-04-21 07:59:54,10.9,9.7,1003.3,WSW,257,0.8,1.9,92,0.0,,,0.0,25,0,n/a,2021-04-20T19:59:54Z
2021-04-21 08:04:57,10.8,9.6,1003.4,WSW,257,0.7,1.9,92,0.0,,,0.0,30,0,n/a,2021-04-20T20:04:57Z
2021-04-21 08:09:58,10.8,9.6,1003.5,WSW,257,0.9,1.9,92,0.0,,,0.0,35,0,n/a,2021-04-20T20:09:58Z
2021-04-21 08:14:52,10.8,9.5,1003.5,WSW,257,0.4,1.9,92,0.0,,,0.0,88,0,n/a,2021-04-20T20:14:52Z
2021-04-21 08:19:03,10.8,9.6,1003.5,WSW,257,0,1.9,92,0.0,,,0.0,137,0,n/a,2021-04-20T20:19:03Z
2021-04-21 08:24:28,10.9,9.7,1003.5,WSW,257,0.1,1.9,92,0.0,,,0.0,127,0,n/a,2021-04-20T20:24:28Z
2021-04-21 08:29:58,11.1,9.9,1003.4,WSW,257,0.2,1.9,92,0.0,,,0.0,160,0,n/a,2021-04-20T20:29:58Z
2021-04-21 08:34:58,11.4,10.1,1003.3,West,275,0.8,3.7,92.4,0.0,,,0.0,179,0,n/a,2021-04-20T20:34:58Z
2021-04-21 08:39:17,11.5,10.2,1003.2,West,276,1.8,5.6,92,0.0,,,0.0,193,0,n/a,2021-04-20T20:39:17Z
2021-04-21 08:44:54,11.8,10.5,1003.3,West,268,1.4,6.4,92,0.0,,,0.0,220,0.5,n/a,2021-04-20T20:44:54Z
2021-04-21 08:49:48,12.1,10.9,1003.3,NNW,345,1.3,6.4,92.5,0.0,,,0.0,255,0.5,n/a,2021-04-20T20:49:48Z
2021-04-21 08:54:30,12.6,11.4,1003.3,West,261,1.4,5.6,92.4,0.0,,,0.0,332,0.6,n/a,2021-04-20T20:54:30Z
2021-04-21 08:59:59,13.2,11.9,1003.2,East,101,1.6,5.6,92.2,0.0,,,0.0,332,0.6,n/a,2021-04-20T20:59:59Z
2021-04-21 09:04:56,13.5,12.2,1003.3,SE,138,3.1,6.4,91.6,0.0,,,0.0,218,0.6,n/a,2021-04-20T21:04:56Z
2021-04-21 09:09:58,13.6,12,1003.3,West,270,2.7,8,90.2,0.0,,,0.0,183,0.6,n/a,2021-04-20T21:09:58Z
2021-04-21 09:14:52,13.5,11.9,1003.4,ENE,61,2.3,7.4,89.9,0.0,,,0.0,195,0.6,n/a,2021-04-20T21:14:52Z
2021-04-21 09:19:58,13.7,11.9,1003.4,SE,126,1.2,3.7,89,0.0,,,0.0,471,0.9,n/a,2021-04-20T21:19:58Z
2021-04-21 09:24:57,13.9,12.1,1003.4,West,275,1.3,5.6,89,0.0,,,0.0,508,1,n/a,2021-04-20T21:24:57Z
2021-04-21 09:29:56,14.4,12.6,1003.4,SW,221,3.2,7.4,88.7,0.0,,,0.0,538,1,n/a,2021-04-20T21:29:56Z
2021-04-21 09:34:56,14.8,12.6,1003.4,WNW,294,4.2,18.5,86.6,0.0,,,0.0,487,1,n/a,2021-04-20T21:34:56Z
2021-04-21 09:39:57,15,12.6,1003.4,NNW,332,3.9,9.7,86,0.0,,,0.0,357,0.9,n/a,2021-04-20T21:39:57Z
2021-04-21 09:44:56,15.1,12.6,1003.4,SW,235,1.6,9.7,85,0.0,,,0.0,199,0.8,n/a,2021-04-20T21:44:56Z
2021-04-21 09:49:25,15.2,12.6,1003.4,NNE,24,2.9,9.7,84.6,0.0,,,0.0,186,0.8,n/a,2021-04-20T21:49:25Z
2021-04-21 09:54:25,15.1,12.5,1003.3,NNW,329,2.3,6.4,84,0.0,,,0.0,192,0.8,n/a,2021-04-20T21:54:25Z
2021-04-21 09:59:54,15.1,12.4,1003.3,NW,319,2.5,8,84,0.0,,,0.0,186,0.9,n/a,2021-04-20T21:59:54Z
2021-04-21 10:04:56,15.1,12.2,1003.3,ENE,72,3.4,6.4,83.2,0.0,,,0.0,190,0.9,n/a,2021-04-20T22:04:56Z
2021-04-21 10:09:57,15,12.2,1003.3,WNW,282,2,6.4,83.4,0.0,,,0.0,190,1,n/a,2021-04-20T22:09:57Z
2021-04-21 10:14:56,15.1,12.4,1003.4,ENE,74,2.4,8,84,0.0,,,0.0,179,1,n/a,2021-04-20T22:14:56Z
2021-04-21 10:19:56,15.1,12.3,1003.2,ENE,73,2.9,11.1,83.4,0.0,,,0.0,172,1,n/a,2021-04-20T22:19:56Z
2021-04-21 10:24:59,15,12.2,1003.2,WNW,295,2,5.6,83,0.0,,,0.0,186,1.1,n/a,2021-04-20T22:24:59Z
2021-04-21 10:29:58,15.1,12.2,1003.1,East,91,2,6.4,83,0.0,,,0.0,202,1.1,n/a,2021-04-20T22:29:58Z
2021-04-21 10:34:59,15.1,12.2,1003.1,ESE,118,3.3,8,83,0.0,,,0.0,211,1.2,n/a,2021-04-20T22:34:59Z
2021-04-21 10:39:54,15.1,12.1,1003.0,NE,48,3.7,11.3,82.2,0.0,,,0.0,229,1.3,n/a,2021-04-20T22:39:54Z
2021-04-21 10:44:36,15.2,12.1,1003.0,WNW,299,5.4,14.8,81.8,0.0,,,0.0,232,1.3,n/a,2021-04-20T22:44:36Z
2021-04-21 10:49:58,15.2,12.1,1003.0,ENE,58,3.6,14.8,81.7,0.0,,,0.0,213,1.2,n/a,2021-04-20T22:49:58Z
2021-04-21 10:54:22,15.2,11.9,1003.0,East,79,3.2,6.4,81,0.0,,,0.0,209,1.3,n/a,2021-04-20T22:54:22Z
2021-04-21 10:59:58,15.1,12,1003.0,East,96,3.1,9.7,81.8,0.0,,,0.0,278,1.6,n/a,2021-04-20T22:59:58Z
2021-04-21 11:04:55,15.2,12,1003.0,ESE,121,4,11.3,81.4,0.0,,,0.0,345,1.7,n/a,2021-04-20T23:04:55Z
2021-04-21 11:09:56,15.3,12,1002.9,North,6,3.3,6.4,81,0.0,,,0.0,352,1.9,n/a,2021-04-20T23:09:56Z
2021-04-21 11:14:57,15.4,12.2,1002.9,ESE,110,4.6,13,80.8,0.0,,,0.0,404,2,n/a,2021-04-20T23:14:57Z
2021-04-21 11:19:58,15.6,12.1,1002.9,East,88,3.4,9.7,80,0.0,,,0.0,281,1.8,n/a,2021-04-20T23:19:58Z
2021-04-21 11:24:57,15.5,11.9,1002.9,NNE,31,4,11.3,79,0.0,,,0.0,345,2,n/a,2021-04-20T23:24:57Z
2021-04-21 11:29:51,15.6,12.1,1002.8,East,101,3.8,6.4,79.7,0.0,,,0.0,738,2.4,n/a,2021-04-20T23:29:51Z
2021-04-21 11:34:58,15.9,12.3,1002.7,East,94,3.3,9.7,79.6,0.0,,,0.0,738,2.6,n/a,2021-04-20T23:34:58Z
2021-04-21 11:39:30,16,12.3,1002.7,ESE,105,2.8,6.4,78.6,0.0,,,0.0,445,2.2,n/a,2021-04-20T23:39:30Z
2021-04-21 11:44:47,16.1,12.3,1002.7,SE,124,3,9.7,78.7,0.0,,,0.0,622,2.7,n/a,2021-04-20T23:44:47Z
2021-04-21 11:49:59,16.3,12.6,1002.7,NE,48,2.6,6.4,79,0.0,,,0.0,622,2.7,n/a,2021-04-20T23:49:59Z
2021-04-21 11:54:47,16.7,12.9,1002.6,SW,215,5,13,78.1,0.0,,,0.0,619,2.7,n/a,2021-04-20T23:54:47Z
2021-04-21 11:59:35,16.9,12.9,1002.6,ESE,110,2.5,13,77,0.0,,,0.0,603,2.7,n/a,2021-04-20T23:59:35Z
2021-04-21 12:04:58,17.2,13.2,1002.6,SE,124,3.4,11.3,77.4,0.0,,,0.0,563,2.7,n/a,2021-04-21T00:04:58Z
2021-04-21 12:09:55,17.2,12.9,1002.5,ESE,106,3.9,11.1,76,0.0,,,0.0,550,2.7,n/a,2021-04-21T00:09:55Z
2021-04-21 12:14:56,17.2,12.9,1002.5,ESE,116,3.5,9.7,76,0.0,,,0.0,559,2.7,n/a,2021-04-21T00:14:56Z
2021-04-21 12:19:55,17.2,12.9,1002.4,ESE,110,4,9.7,76,0.0,,,0.0,541,2.7,n/a,2021-04-21T00:19:55Z
2021-04-21 12:24:38,17,12.6,1002.4,East,100,4.8,13,75.4,0.0,,,0.0,536,2.7,n/a,2021-04-21T00:24:38Z
2021-04-21 12:29:56,16.9,12.8,1002.3,East,94,4.2,13,76.6,0.0,,,0.0,531,2.7,n/a,2021-04-21T00:29:56Z
2021-04-21 12:34:55,17,12.8,1002.2,ESE,111,4.6,13,76.1,0.0,,,0.0,531,2.7,n/a,2021-04-21T00:34:55Z
2021-04-21 12:39:57,17.1,12.9,1002.1,ESE,117,6.4,19.3,76.4,0.0,,,0.0,517,2.7,n/a,2021-04-21T00:39:57Z
2021-04-21 12:44:51,17,12.8,1002.1,ESE,112,5.6,14.8,76,0.0,,,0.0,517,2.7,n/a,2021-04-21T00:44:51Z
2021-04-21 12:49:56,17.1,12.9,1001.9,SE,124,5.3,14.8,76.3,0.0,,,0.0,533,2.7,n/a,2021-04-21T00:49:56Z
2021-04-21 12:54:56,17.2,12.8,1001.9,East,90,5.2,13,75.8,0.0,,,0.0,519,2.7,n/a,2021-04-21T00:54:56Z
2021-04-21 12:59:48,17.2,12.9,1001.9,East,99,4,13,76,0.0,,,0.0,522,2.6,n/a,2021-04-21T00:59:48Z
2021-04-21 13:04:56,17.3,13,1001.8,ESE,110,4.6,14.8,75.8,0.0,,,0.0,510,2.6,n/a,2021-04-21T01:04:56Z
2021-04-21 13:09:57,17.3,13,1001.8,East,99,4.4,11.3,76,0.0,,,0.0,519,2.6,n/a,2021-04-21T01:09:57Z
2021-04-21 13:14:54,17.4,13,1001.8,ESE,103,5.3,11.3,75.8,0.0,,,0.0,513,2.5,n/a,2021-04-21T01:14:54Z
2021-04-21 13:19:57,17.4,13,1001.8,NE,49,3,7.4,75.5,0.0,,,0.0,510,2.5,n/a,2021-04-21T01:19:57Z
2021-04-21 13:24:58,17.6,12.9,1001.7,North,4,5.6,14.8,74.3,0.0,,,0.0,515,2.5,n/a,2021-04-21T01:24:58Z
2021-04-21 13:29:41,17.7,12.7,1001.8,NNE,12,5.1,11.3,72.7,0.0,,,0.0,512,2.5,n/a,2021-04-21T01:29:41Z
2021-04-21 13:34:55,17.8,12.4,1001.8,ESE,115,4.5,11.1,70.7,0.0,,,0.0,508,2.4,n/a,2021-04-21T01:34:55Z
2021-04-21 13:39:57,17.7,12,1001.7,East,88,5.3,11.3,69.4,0.0,,,0.0,503,2.4,n/a,2021-04-21T01:39:57Z
2021-04-21 13:44:56,17.6,12,1001.7,ESE,104,5.9,13,69.7,0.0,,,0.0,499,2.3,n/a,2021-04-21T01:44:56Z
2021-04-21 13:49:54,17.5,11.7,1001.7,NNE,33,3.5,11.3,68.8,0.0,,,0.0,496,2.3,n/a,2021-04-21T01:49:54Z
2021-04-21 13:54:50,17.8,12.1,1001.7,East,95,3.3,11.3,69.3,0.0,,,0.0,489,2.2,n/a,2021-04-21T01:54:50Z
2021-04-21 13:59:54,17.8,12,1001.7,SE,125,5.8,14.5,69,0.0,,,0.0,480,2.2,n/a,2021-04-21T01:59:54Z
2021-04-21 14:04:57,17.7,12,1001.7,East,96,4.1,14.8,69.3,0.0,,,0.0,475,2.1,n/a,2021-04-21T02:04:57Z
2021-04-21 14:09:59,17.6,11.9,1001.7,East,97,4.8,11.3,69.1,0.0,,,0.0,469,2.1,n/a,2021-04-21T02:09:59Z
2021-04-21 14:14:58,17.6,12,1001.8,SE,133,3.4,9.3,69.9,0.0,,,0.0,464,2,n/a,2021-04-21T02:14:58Z
2021-04-21 14:19:59,17.6,12,1001.7,NW,312,3.2,8,69.5,0.0,,,0.0,457,1.9,n/a,2021-04-21T02:19:59Z
2021-04-21 14:24:38,17.9,12,1001.7,WSW,249,3.9,13,68.5,0.0,,,0.0,450,1.9,n/a,2021-04-21T02:24:38Z
2021-04-21 14:29:57,17.9,12.1,1001.6,North,358,3.3,13,68.7,0.0,,,0.0,443,1.8,n/a,2021-04-21T02:29:57Z
2021-04-21 14:34:55,17.9,12,1001.6,ESE,109,3,9.7,68.9,0.0,,,0.0,434,1.7,n/a,2021-04-21T02:34:55Z
2021-04-21 14:39:57,17.7,11.9,1001.6,ESE,113,4.5,9.7,69,0.0,,,0.0,424,1.7,n/a,2021-04-21T02:39:57Z
2021-04-21 14:44:57,17.7,12.1,1001.5,ESE,107,3.1,11.3,69.8,0.0,,,0.0,417,1.6,n/a,2021-04-21T02:44:57Z
2021-04-21 14:49:50,17.9,12,1001.5,WSW,254,3.9,11.1,68.4,0.0,,,0.0,408,1.5,n/a,2021-04-21T02:49:50Z
2021-04-21 14:54:55,18,11.6,1001.5,South,181,4.9,8,66.5,0.0,,,0.0,399,1.5,n/a,2021-04-21T02:54:55Z
2021-04-21 14:59:55,17.7,11.3,1001.4,East,82,3.7,7.4,66.6,0.0,,,0.0,388,1.4,n/a,2021-04-21T02:59:55Z
2021-04-21 15:04:57,17.6,11.7,1001.5,West,262,3.5,11.3,68.1,0.0,,,0.0,380,1.3,n/a,2021-04-21T03:04:57Z
2021-04-21 15:09:59,18,11.8,1001.5,WNW,297,1.9,6.4,67,0.0,,,0.0,369,1.3,n/a,2021-04-21T03:09:59Z
2021-04-21 15:14:52,18.2,11.7,1001.5,SW,232,3,6.4,66,0.0,,,0.0,359,1.2,n/a,2021-04-21T03:14:52Z
2021-04-21 15:19:56,18.2,11.6,1001.5,NNE,32,2.5,5.6,65.2,0.0,,,0.0,346,1.1,n/a,2021-04-21T03:19:56Z
2021-04-21 15:24:50,18.1,11.8,1001.5,NNE,24,2.3,5.6,66.6,0.0,,,0.0,336,1,n/a,2021-04-21T03:24:50Z
2021-04-21 15:29:57,17.9,11.6,1001.5,ESE,118,3.4,6.4,66.6,0.0,,,0.0,327,1,n/a,2021-04-21T03:29:57Z
2021-04-21 15:34:57,17.9,11.5,1001.5,NNW,332,2.3,6.4,66.5,0.0,,,0.0,316,0.9,n/a,2021-04-21T03:34:57Z
2021-04-21 15:39:57,18,11.6,1001.5,NE,37,2.6,6.4,66.4,0.0,,,0.0,302,0.9,n/a,2021-04-21T03:39:57Z
2021-04-21 15:44:58,17.9,11.7,1001.5,NE,49,2.3,6.4,67.3,0.0,,,0.0,290,0.8,n/a,2021-04-21T03:44:58Z
2021-04-21 15:49:58,18,11.7,1001.5,WNW,301,3,6.4,66.4,0.0,,,0.0,278,0.7,n/a,2021-04-21T03:49:58Z
2021-04-21 15:54:57,18.1,11.6,1001.4,North,353,2.1,8,65.8,0.0,,,0.0,265,0.7,n/a,2021-04-21T03:54:57Z
2021-04-21 15:59:58,18,11.6,1001.4,North,355,2.6,9.7,66,0.0,,,0.0,253,0.6,n/a,2021-04-21T03:59:58Z
2021-04-21 16:04:55,17.9,11.5,1001.4,NW,305,2.5,9.3,66.2,0.0,,,0.0,241,0.6,n/a,2021-04-21T04:04:55Z
2021-04-21 16:09:52,17.9,11.3,1001.4,North,349,2.2,6.4,65.4,0.0,,,0.0,229,0.5,n/a,2021-04-21T04:09:52Z
2021-04-21 16:14:58,17.9,11.4,1001.4,NNE,17,2.1,8,65.7,0.0,,,0.0,213,0.5,n/a,2021-04-21T04:14:58Z
2021-04-21 16:19:57,17.6,11.1,1001.5,East,101,2.9,6.4,65.5,0.0,,,0.0,197,0,n/a,2021-04-21T04:19:57Z
2021-04-21 16:24:58,17.1,10.9,1001.5,East,98,3.1,5.6,66.6,0.0,,,0.0,179,0,n/a,2021-04-21T04:24:58Z
2021-04-21 16:29:54,16.9,11,1001.5,NE,44,2.2,6.4,68,0.0,,,0.0,163,0,n/a,2021-04-21T04:29:54Z
2021-04-21 16:34:54,17,11.2,1001.5,ENE,68,1.2,5.6,68.5,0.0,,,0.0,149,0,n/a,2021-04-21T04:34:54Z
2021-04-21 16:39:50,17,11.1,1001.5,NE,43,1.3,5.6,68.4,0.0,,,0.0,132,0,n/a,2021-04-21T04:39:50Z